sensor_id;sensor_type;location;lat;lon;timestamp;P1;durP1;ratioP1;P2;durP2;ratioP2
41219;SDS011;26951;47.338;9.196;2023-08-31T00:02:05;3.40;;;3.10;;
41219;SDS011;26951;47.338;9.196;2023-08-31T00:04:53;6.15;;;3.00;;
41219;SDS011;26951;47.338;9.196;2023-08-31T00:07:37;3.20;;;2.90;;
41219;SDS011;26951;47.338;9.196;2023-08-31T00:10:33;3.25;;;2.95;;
41219;SDS011;26951;47.338;9.196;2023-08-31T00:13:18;4.60;;;3.08;;
41219;SDS011;26951;47.338;9.196;2023-08-31T00:16:02;5.07;;;3.22;;
41219;SDS011;26951;47.338;9.196;2023-08-31T00:21:32;3.33;;;3.03;;
41219;SDS011;26951;47.338;9.196;2023-08-31T00:24:17;4.07;;;3.67;;
41219;SDS011;26951;47.338;9.196;2023-08-31T00:27:01;5.60;;;3.28;;
41219;SDS011;26951;47.338;9.196;2023-08-31T00:32:34;3.80;;;3.50;;
41219;SDS011;26951;47.338;9.196;2023-08-31T00:35:18;3.53;;;3.22;;
41219;SDS011;26951;47.338;9.196;2023-08-31T00:38:02;4.03;;;3.47;;
41219;SDS011;26951;47.338;9.196;2023-08-31T00:40:48;3.90;;;3.40;;
41219;SDS011;26951;47.338;9.196;2023-08-31T00:43:32;6.88;;;3.83;;
41219;SDS011;26951;47.338;9.196;2023-08-31T00:46:17;3.70;;;3.40;;
41219;SDS011;26951;47.338;9.196;2023-08-31T00:49:01;3.92;;;3.50;;
41219;SDS011;26951;47.338;9.196;2023-08-31T00:51:47;3.35;;;3.05;;
41219;SDS011;26951;47.338;9.196;2023-08-31T00:54:34;3.83;;;3.53;;
41219;SDS011;26951;47.338;9.196;2023-08-31T00:57:18;3.42;;;3.13;;
41219;SDS011;26951;47.338;9.196;2023-08-31T01:00:03;4.57;;;3.70;;
41219;SDS011;26951;47.338;9.196;2023-08-31T01:03:01;3.28;;;2.97;;
41219;SDS011;26951;47.338;9.196;2023-08-31T01:06:00;3.38;;;3.00;;
41219;SDS011;26951;47.338;9.196;2023-08-31T01:15:01;3.90;;;3.17;;
41219;SDS011;26951;47.338;9.196;2023-08-31T01:17:52;3.42;;;3.13;;
41219;SDS011;26951;47.338;9.196;2023-08-31T01:20:42;3.75;;;2.92;;
41219;SDS011;26951;47.338;9.196;2023-08-31T01:26:38;3.75;;;3.40;;
41219;SDS011;26951;47.338;9.196;2023-08-31T01:29:25;3.67;;;3.30;;
41219;SDS011;26951;47.338;9.196;2023-08-31T01:32:09;3.92;;;3.60;;
41219;SDS011;26951;47.338;9.196;2023-08-31T01:34:54;3.50;;;3.20;;
41219;SDS011;26951;47.338;9.196;2023-08-31T01:37:45;3.20;;;2.90;;
41219;SDS011;26951;47.338;9.196;2023-08-31T01:40:46;3.50;;;2.92;;
41219;SDS011;26951;47.338;9.196;2023-08-31T01:43:38;3.20;;;2.90;;
41219;SDS011;26951;47.338;9.196;2023-08-31T01:46:24;3.38;;;3.08;;
41219;SDS011;26951;47.338;9.196;2023-08-31T01:49:09;4.22;;;3.60;;
41219;SDS011;26951;47.338;9.196;2023-08-31T01:51:54;3.58;;;3.28;;
41219;SDS011;26951;47.338;9.196;2023-08-31T01:54:38;3.85;;;3.00;;
41219;SDS011;26951;47.338;9.196;2023-08-31T01:57:22;3.73;;;3.33;;
41219;SDS011;26951;47.338;9.196;2023-08-31T02:00:07;3.80;;;3.35;;
41219;SDS011;26951;47.338;9.196;2023-08-31T02:02:53;3.53;;;3.10;;
41219;SDS011;26951;47.338;9.196;2023-08-31T02:05:37;3.97;;;2.92;;
41219;SDS011;26951;47.338;9.196;2023-08-31T02:08:21;3.83;;;3.40;;
41219;SDS011;26951;47.338;9.196;2023-08-31T02:11:05;4.25;;;3.20;;
41219;SDS011;26951;47.338;9.196;2023-08-31T02:13:49;3.90;;;2.97;;
41219;SDS011;26951;47.338;9.196;2023-08-31T02:16:34;3.72;;;3.05;;
41219;SDS011;26951;47.338;9.196;2023-08-31T02:19:18;3.15;;;2.90;;
41219;SDS011;26951;47.338;9.196;2023-08-31T02:22:02;3.88;;;3.42;;
41219;SDS011;26951;47.338;9.196;2023-08-31T02:24:46;3.88;;;3.47;;
41219;SDS011;26951;47.338;9.196;2023-08-31T02:27:30;3.55;;;3.20;;
41219;SDS011;26951;47.338;9.196;2023-08-31T02:30:14;4.32;;;3.20;;
41219;SDS011;26951;47.338;9.196;2023-08-31T02:32:58;3.28;;;2.85;;
41219;SDS011;26951;47.338;9.196;2023-08-31T02:35:42;4.30;;;3.08;;
41219;SDS011;26951;47.338;9.196;2023-08-31T02:38:26;3.70;;;2.97;;
41219;SDS011;26951;47.338;9.196;2023-08-31T02:41:11;5.38;;;3.70;;
41219;SDS011;26951;47.338;9.196;2023-08-31T02:43:55;3.33;;;2.92;;
41219;SDS011;26951;47.338;9.196;2023-08-31T02:46:39;4.13;;;3.25;;
41219;SDS011;26951;47.338;9.196;2023-08-31T02:49:24;3.92;;;3.53;;
41219;SDS011;26951;47.338;9.196;2023-08-31T02:52:08;3.90;;;3.00;;
41219;SDS011;26951;47.338;9.196;2023-08-31T02:54:52;4.20;;;3.35;;
41219;SDS011;26951;47.338;9.196;2023-08-31T02:57:36;4.45;;;3.70;;
41219;SDS011;26951;47.338;9.196;2023-08-31T03:00:20;3.67;;;3.08;;
41219;SDS011;26951;47.338;9.196;2023-08-31T03:03:05;2.97;;;2.67;;
41219;SDS011;26951;47.338;9.196;2023-08-31T03:05:54;3.80;;;3.33;;
41219;SDS011;26951;47.338;9.196;2023-08-31T03:08:39;3.28;;;2.97;;
41219;SDS011;26951;47.338;9.196;2023-08-31T03:11:23;3.47;;;3.17;;
41219;SDS011;26951;47.338;9.196;2023-08-31T03:14:07;3.38;;;3.08;;
41219;SDS011;26951;47.338;9.196;2023-08-31T03:16:53;3.97;;;3.03;;
41219;SDS011;26951;47.338;9.196;2023-08-31T03:19:38;4.18;;;3.00;;
41219;SDS011;26951;47.338;9.196;2023-08-31T03:22:22;3.55;;;3.25;;
41219;SDS011;26951;47.338;9.196;2023-08-31T03:25:06;4.88;;;3.25;;
41219;SDS011;26951;47.338;9.196;2023-08-31T03:27:51;3.88;;;3.47;;
41219;SDS011;26951;47.338;9.196;2023-08-31T03:30:35;3.72;;;3.42;;
41219;SDS011;26951;47.338;9.196;2023-08-31T03:33:19;3.85;;;3.45;;
41219;SDS011;26951;47.338;9.196;2023-08-31T03:36:03;4.15;;;3.40;;
41219;SDS011;26951;47.338;9.196;2023-08-31T03:38:48;3.67;;;3.37;;
41219;SDS011;26951;47.338;9.196;2023-08-31T03:41:32;4.45;;;3.20;;
41219;SDS011;26951;47.338;9.196;2023-08-31T03:44:20;3.50;;;3.10;;
41219;SDS011;26951;47.338;9.196;2023-08-31T03:47:05;3.70;;;3.20;;
41219;SDS011;26951;47.338;9.196;2023-08-31T03:49:49;3.35;;;3.05;;
41219;SDS011;26951;47.338;9.196;2023-08-31T03:52:33;3.90;;;3.50;;
41219;SDS011;26951;47.338;9.196;2023-08-31T03:55:17;3.38;;;3.08;;
41219;SDS011;26951;47.338;9.196;2023-08-31T03:58:02;3.38;;;3.08;;
41219;SDS011;26951;47.338;9.196;2023-08-31T04:00:48;4.00;;;2.90;;
41219;SDS011;26951;47.338;9.196;2023-08-31T04:03:33;3.38;;;3.08;;
41219;SDS011;26951;47.338;9.196;2023-08-31T04:06:17;3.17;;;2.88;;
41219;SDS011;26951;47.338;9.196;2023-08-31T04:09:01;6.65;;;3.92;;
41219;SDS011;26951;47.338;9.196;2023-08-31T04:11:46;3.73;;;3.43;;
41219;SDS011;26951;47.338;9.196;2023-08-31T04:14:30;3.55;;;3.22;;
41219;SDS011;26951;47.338;9.196;2023-08-31T04:17:14;3.83;;;3.42;;
41219;SDS011;26951;47.338;9.196;2023-08-31T04:19:58;4.03;;;3.28;;
41219;SDS011;26951;47.338;9.196;2023-08-31T04:22:42;3.83;;;2.90;;
41219;SDS011;26951;47.338;9.196;2023-08-31T04:25:28;3.28;;;2.97;;
41219;SDS011;26951;47.338;9.196;2023-08-31T04:28:15;3.72;;;3.25;;
41219;SDS011;26951;47.338;9.196;2023-08-31T04:30:59;3.17;;;2.85;;
41219;SDS011;26951;47.338;9.196;2023-08-31T04:33:43;3.60;;;3.30;;
41219;SDS011;26951;47.338;9.196;2023-08-31T04:36:29;6.78;;;3.28;;
41219;SDS011;26951;47.338;9.196;2023-08-31T04:39:13;3.80;;;3.30;;
41219;SDS011;26951;47.338;9.196;2023-08-31T04:41:57;4.20;;;3.65;;
41219;SDS011;26951;47.338;9.196;2023-08-31T04:44:41;3.60;;;3.30;;
41219;SDS011;26951;47.338;9.196;2023-08-31T04:47:26;3.65;;;3.20;;
41219;SDS011;26951;47.338;9.196;2023-08-31T04:50:10;4.63;;;2.90;;
41219;SDS011;26951;47.338;9.196;2023-08-31T04:52:54;3.00;;;2.70;;
41219;SDS011;26951;47.338;9.196;2023-08-31T04:55:38;4.03;;;3.63;;
41219;SDS011;26951;47.338;9.196;2023-08-31T04:58:22;3.42;;;3.13;;
41219;SDS011;26951;47.338;9.196;2023-08-31T05:01:07;3.60;;;3.30;;
41219;SDS011;26951;47.338;9.196;2023-08-31T05:03:51;6.80;;;3.22;;
41219;SDS011;26951;47.338;9.196;2023-08-31T05:06:35;4.53;;;3.47;;
41219;SDS011;26951;47.338;9.196;2023-08-31T05:09:19;5.57;;;3.70;;
41219;SDS011;26951;47.338;9.196;2023-08-31T05:12:04;3.70;;;2.70;;
41219;SDS011;26951;47.338;9.196;2023-08-31T05:14:48;4.23;;;3.13;;
41219;SDS011;26951;47.338;9.196;2023-08-31T05:17:32;4.43;;;3.47;;
41219;SDS011;26951;47.338;9.196;2023-08-31T05:20:17;4.00;;;3.50;;
41219;SDS011;26951;47.338;9.196;2023-08-31T05:23:01;3.80;;;3.50;;
41219;SDS011;26951;47.338;9.196;2023-08-31T05:25:45;4.68;;;3.15;;
41219;SDS011;26951;47.338;9.196;2023-08-31T05:28:29;4.57;;;3.70;;
41219;SDS011;26951;47.338;9.196;2023-08-31T05:31:13;4.57;;;4.18;;
41219;SDS011;26951;47.338;9.196;2023-08-31T05:33:58;4.47;;;3.70;;
41219;SDS011;26951;47.338;9.196;2023-08-31T05:36:42;3.28;;;2.97;;
41219;SDS011;26951;47.338;9.196;2023-08-31T05:39:27;4.20;;;3.20;;
41219;SDS011;26951;47.338;9.196;2023-08-31T05:42:11;6.18;;;3.42;;
41219;SDS011;26951;47.338;9.196;2023-08-31T05:44:55;5.32;;;3.45;;
41219;SDS011;26951;47.338;9.196;2023-08-31T05:47:40;4.63;;;3.42;;
41219;SDS011;26951;47.338;9.196;2023-08-31T05:50:24;5.03;;;3.30;;
41219;SDS011;26951;47.338;9.196;2023-08-31T05:53:09;5.82;;;3.85;;
41219;SDS011;26951;47.338;9.196;2023-08-31T05:55:54;5.55;;;4.38;;
41219;SDS011;26951;47.338;9.196;2023-08-31T05:58:46;6.45;;;4.93;;
41219;SDS011;26951;47.338;9.196;2023-08-31T06:01:31;9.02;;;5.13;;
41219;SDS011;26951;47.338;9.196;2023-08-31T06:04:15;4.43;;;3.75;;
41219;SDS011;26951;47.338;9.196;2023-08-31T06:06:59;5.65;;;4.13;;
41219;SDS011;26951;47.338;9.196;2023-08-31T06:09:43;4.72;;;4.20;;
41219;SDS011;26951;47.338;9.196;2023-08-31T06:12:28;4.40;;;3.90;;
41219;SDS011;26951;47.338;9.196;2023-08-31T06:15:12;4.88;;;3.88;;
41219;SDS011;26951;47.338;9.196;2023-08-31T06:17:56;6.88;;;4.38;;
41219;SDS011;26951;47.338;9.196;2023-08-31T06:20:40;4.35;;;3.95;;
41219;SDS011;26951;47.338;9.196;2023-08-31T06:23:25;4.47;;;3.85;;
41219;SDS011;26951;47.338;9.196;2023-08-31T06:26:09;5.88;;;3.97;;
41219;SDS011;26951;47.338;9.196;2023-08-31T06:28:53;4.90;;;3.67;;
41219;SDS011;26951;47.338;9.196;2023-08-31T06:31:37;4.00;;;3.60;;
41219;SDS011;26951;47.338;9.196;2023-08-31T06:34:21;4.57;;;3.92;;
41219;SDS011;26951;47.338;9.196;2023-08-31T06:37:05;4.45;;;3.50;;
41219;SDS011;26951;47.338;9.196;2023-08-31T06:39:49;4.50;;;3.95;;
41219;SDS011;26951;47.338;9.196;2023-08-31T06:42:37;4.20;;;3.65;;
41219;SDS011;26951;47.338;9.196;2023-08-31T06:45:21;4.10;;;3.33;;
41219;SDS011;26951;47.338;9.196;2023-08-31T06:48:05;4.55;;;4.15;;
41219;SDS011;26951;47.338;9.196;2023-08-31T06:50:50;5.78;;;4.30;;
41219;SDS011;26951;47.338;9.196;2023-08-31T06:53:34;4.45;;;3.70;;
41219;SDS011;26951;47.338;9.196;2023-08-31T06:56:18;5.32;;;3.90;;
41219;SDS011;26951;47.338;9.196;2023-08-31T06:59:02;5.00;;;4.50;;
41219;SDS011;26951;47.338;9.196;2023-08-31T07:01:46;5.25;;;4.25;;
41219;SDS011;26951;47.338;9.196;2023-08-31T07:04:30;4.93;;;4.28;;
41219;SDS011;26951;47.338;9.196;2023-08-31T07:07:14;5.25;;;4.75;;
41219;SDS011;26951;47.338;9.196;2023-08-31T07:09:58;6.55;;;4.80;;
41219;SDS011;26951;47.338;9.196;2023-08-31T07:12:43;4.95;;;4.40;;
41219;SDS011;26951;47.338;9.196;2023-08-31T07:15:27;4.47;;;4.07;;
41219;SDS011;26951;47.338;9.196;2023-08-31T07:18:11;5.43;;;4.57;;
41219;SDS011;26951;47.338;9.196;2023-08-31T07:20:55;5.28;;;4.63;;
41219;SDS011;26951;47.338;9.196;2023-08-31T07:23:40;4.78;;;4.22;;
41219;SDS011;26951;47.338;9.196;2023-08-31T07:26:24;5.90;;;4.47;;
41219;SDS011;26951;47.338;9.196;2023-08-31T07:29:08;4.78;;;4.20;;
41219;SDS011;26951;47.338;9.196;2023-08-31T07:31:52;5.03;;;4.50;;
41219;SDS011;26951;47.338;9.196;2023-08-31T07:34:36;4.97;;;4.30;;
41219;SDS011;26951;47.338;9.196;2023-08-31T07:37:20;13.07;;;6.28;;
41219;SDS011;26951;47.338;9.196;2023-08-31T07:40:04;5.70;;;4.78;;
41219;SDS011;26951;47.338;9.196;2023-08-31T07:42:53;4.75;;;4.28;;
41219;SDS011;26951;47.338;9.196;2023-08-31T07:45:37;6.18;;;4.38;;
41219;SDS011;26951;47.338;9.196;2023-08-31T07:48:21;5.10;;;4.28;;
41219;SDS011;26951;47.338;9.196;2023-08-31T07:51:06;4.60;;;4.20;;
41219;SDS011;26951;47.338;9.196;2023-08-31T07:53:51;6.22;;;4.57;;
41219;SDS011;26951;47.338;9.196;2023-08-31T07:56:35;3.75;;;3.33;;
41219;SDS011;26951;47.338;9.196;2023-08-31T07:59:20;3.90;;;3.30;;
41219;SDS011;26951;47.338;9.196;2023-08-31T08:02:04;3.30;;;3.00;;
41219;SDS011;26951;47.338;9.196;2023-08-31T08:04:49;3.63;;;3.33;;
41219;SDS011;26951;47.338;9.196;2023-08-31T08:07:32;4.18;;;3.50;;
41219;SDS011;26951;47.338;9.196;2023-08-31T08:10:16;5.40;;;3.47;;
41219;SDS011;26951;47.338;9.196;2023-08-31T08:13:01;3.70;;;3.30;;
41219;SDS011;26951;47.338;9.196;2023-08-31T08:15:45;4.10;;;3.50;;
41219;SDS011;26951;47.338;9.196;2023-08-31T08:18:30;4.25;;;3.85;;
41219;SDS011;26951;47.338;9.196;2023-08-31T08:21:14;3.50;;;3.20;;
41219;SDS011;26951;47.338;9.196;2023-08-31T08:23:58;4.18;;;3.78;;
41219;SDS011;26951;47.338;9.196;2023-08-31T08:26:42;3.42;;;3.10;;
41219;SDS011;26951;47.338;9.196;2023-08-31T08:29:27;3.27;;;2.87;;
41219;SDS011;26951;47.338;9.196;2023-08-31T08:32:11;3.45;;;3.15;;
41219;SDS011;26951;47.338;9.196;2023-08-31T08:34:55;4.13;;;3.72;;
41219;SDS011;26951;47.338;9.196;2023-08-31T08:37:40;4.25;;;3.85;;
41219;SDS011;26951;47.338;9.196;2023-08-31T08:40:24;3.95;;;3.63;;
41219;SDS011;26951;47.338;9.196;2023-08-31T08:43:08;4.38;;;3.65;;
41219;SDS011;26951;47.338;9.196;2023-08-31T08:45:54;4.20;;;3.80;;
41219;SDS011;26951;47.338;9.196;2023-08-31T08:48:47;5.35;;;3.70;;
41219;SDS011;26951;47.338;9.196;2023-08-31T08:51:32;4.47;;;4.07;;
41219;SDS011;26951;47.338;9.196;2023-08-31T08:54:17;5.07;;;4.07;;
41219;SDS011;26951;47.338;9.196;2023-08-31T08:57:02;5.25;;;4.05;;
41219;SDS011;26951;47.338;9.196;2023-08-31T08:59:47;4.55;;;4.00;;
41219;SDS011;26951;47.338;9.196;2023-08-31T09:02:31;4.30;;;3.90;;
41219;SDS011;26951;47.338;9.196;2023-08-31T09:05:15;4.40;;;3.55;;
41219;SDS011;26951;47.338;9.196;2023-08-31T09:08:00;5.25;;;4.10;;
41219;SDS011;26951;47.338;9.196;2023-08-31T09:10:47;4.20;;;3.40;;
41219;SDS011;26951;47.338;9.196;2023-08-31T09:13:32;3.70;;;3.40;;
41219;SDS011;26951;47.338;9.196;2023-08-31T09:16:23;3.95;;;3.65;;
41219;SDS011;26951;47.338;9.196;2023-08-31T09:19:17;5.88;;;3.95;;
41219;SDS011;26951;47.338;9.196;2023-08-31T09:22:06;4.10;;;3.17;;
41219;SDS011;26951;47.338;9.196;2023-08-31T09:24:50;4.57;;;3.35;;
41219;SDS011;26951;47.338;9.196;2023-08-31T09:27:38;3.45;;;3.15;;
41219;SDS011;26951;47.338;9.196;2023-08-31T09:30:22;4.10;;;3.63;;
41219;SDS011;26951;47.338;9.196;2023-08-31T09:33:07;3.88;;;3.35;;
41219;SDS011;26951;47.338;9.196;2023-08-31T09:35:54;3.88;;;3.30;;
41219;SDS011;26951;47.338;9.196;2023-08-31T09:38:41;3.17;;;2.65;;
41219;SDS011;26951;47.338;9.196;2023-08-31T09:41:29;3.40;;;3.10;;
41219;SDS011;26951;47.338;9.196;2023-08-31T09:44:14;2.92;;;2.70;;
41219;SDS011;26951;47.338;9.196;2023-08-31T09:47:00;2.97;;;2.55;;
41219;SDS011;26951;47.338;9.196;2023-08-31T09:49:44;3.88;;;3.47;;
41219;SDS011;26951;47.338;9.196;2023-08-31T09:52:29;3.42;;;2.95;;
41219;SDS011;26951;47.338;9.196;2023-08-31T09:55:13;4.25;;;3.22;;
41219;SDS011;26951;47.338;9.196;2023-08-31T09:57:59;3.42;;;2.90;;
41219;SDS011;26951;47.338;9.196;2023-08-31T10:00:44;3.20;;;2.80;;
41219;SDS011;26951;47.338;9.196;2023-08-31T10:03:30;3.75;;;2.63;;
41219;SDS011;26951;47.338;9.196;2023-08-31T10:06:14;4.13;;;3.00;;
41219;SDS011;26951;47.338;9.196;2023-08-31T10:08:59;3.23;;;2.73;;
41219;SDS011;26951;47.338;9.196;2023-08-31T10:11:44;4.18;;;2.47;;
41219;SDS011;26951;47.338;9.196;2023-08-31T10:14:29;3.10;;;2.67;;
41219;SDS011;26951;47.338;9.196;2023-08-31T10:17:13;2.85;;;2.50;;
41219;SDS011;26951;47.338;9.196;2023-08-31T10:19:58;3.22;;;2.90;;
41219;SDS011;26951;47.338;9.196;2023-08-31T10:22:43;3.47;;;2.70;;
41219;SDS011;26951;47.338;9.196;2023-08-31T10:25:37;3.88;;;2.90;;
41219;SDS011;26951;47.338;9.196;2023-08-31T10:28:39;2.58;;;2.30;;
41219;SDS011;26951;47.338;9.196;2023-08-31T10:31:28;5.00;;;2.53;;
41219;SDS011;26951;47.338;9.196;2023-08-31T10:34:16;2.45;;;2.10;;
41219;SDS011;26951;47.338;9.196;2023-08-31T10:37:20;3.35;;;2.95;;
41219;SDS011;26951;47.338;9.196;2023-08-31T10:40:10;3.55;;;2.50;;
41219;SDS011;26951;47.338;9.196;2023-08-31T10:43:16;3.83;;;2.70;;
41219;SDS011;26951;47.338;9.196;2023-08-31T10:46:01;4.05;;;2.40;;
41219;SDS011;26951;47.338;9.196;2023-08-31T10:51:34;3.63;;;2.22;;
41219;SDS011;26951;47.338;9.196;2023-08-31T10:57:15;4.15;;;3.00;;
41219;SDS011;26951;47.338;9.196;2023-08-31T11:00:00;4.13;;;2.38;;
41219;SDS011;26951;47.338;9.196;2023-08-31T11:02:44;3.80;;;2.70;;
41219;SDS011;26951;47.338;9.196;2023-08-31T11:05:29;2.22;;;1.90;;
41219;SDS011;26951;47.338;9.196;2023-08-31T11:08:12;3.53;;;2.67;;
41219;SDS011;26951;47.338;9.196;2023-08-31T11:10:57;3.38;;;2.67;;
41219;SDS011;26951;47.338;9.196;2023-08-31T11:13:41;4.35;;;2.33;;
41219;SDS011;26951;47.338;9.196;2023-08-31T11:16:25;4.13;;;2.70;;
41219;SDS011;26951;47.338;9.196;2023-08-31T11:19:10;5.65;;;2.83;;
41219;SDS011;26951;47.338;9.196;2023-08-31T11:21:54;3.28;;;2.78;;
41219;SDS011;26951;47.338;9.196;2023-08-31T11:24:38;4.78;;;2.75;;
41219;SDS011;26951;47.338;9.196;2023-08-31T11:27:24;3.10;;;2.40;;
41219;SDS011;26951;47.338;9.196;2023-08-31T11:30:14;3.03;;;2.10;;
41219;SDS011;26951;47.338;9.196;2023-08-31T11:35:48;2.92;;;1.95;;
41219;SDS011;26951;47.338;9.196;2023-08-31T11:38:32;2.70;;;1.98;;
41219;SDS011;26951;47.338;9.196;2023-08-31T11:41:16;4.88;;;2.42;;
41219;SDS011;26951;47.338;9.196;2023-08-31T11:44:01;3.05;;;2.25;;
41219;SDS011;26951;47.338;9.196;2023-08-31T11:46:46;2.55;;;2.13;;
41219;SDS011;26951;47.338;9.196;2023-08-31T11:49:34;2.83;;;2.30;;
41219;SDS011;26951;47.338;9.196;2023-08-31T11:52:18;5.22;;;2.95;;
41219;SDS011;26951;47.338;9.196;2023-08-31T11:55:09;3.13;;;1.80;;
41219;SDS011;26951;47.338;9.196;2023-08-31T11:57:56;3.38;;;2.45;;
41219;SDS011;26951;47.338;9.196;2023-08-31T12:00:42;3.63;;;2.20;;
41219;SDS011;26951;47.338;9.196;2023-08-31T12:03:27;2.85;;;2.20;;
41219;SDS011;26951;47.338;9.196;2023-08-31T12:06:11;2.05;;;1.85;;
41219;SDS011;26951;47.338;9.196;2023-08-31T12:08:58;2.67;;;2.40;;
41219;SDS011;26951;47.338;9.196;2023-08-31T12:11:48;3.00;;;1.90;;
41219;SDS011;26951;47.338;9.196;2023-08-31T12:14:39;3.60;;;1.77;;
41219;SDS011;26951;47.338;9.196;2023-08-31T12:17:23;3.25;;;2.28;;
41219;SDS011;26951;47.338;9.196;2023-08-31T12:20:07;2.83;;;2.25;;
41219;SDS011;26951;47.338;9.196;2023-08-31T12:22:53;3.00;;;1.98;;
41219;SDS011;26951;47.338;9.196;2023-08-31T12:25:37;4.38;;;2.47;;
41219;SDS011;26951;47.338;9.196;2023-08-31T12:28:22;2.47;;;1.90;;
41219;SDS011;26951;47.338;9.196;2023-08-31T12:31:07;3.17;;;2.20;;
41219;SDS011;26951;47.338;9.196;2023-08-31T12:33:52;3.83;;;2.28;;
41219;SDS011;26951;47.338;9.196;2023-08-31T12:36:36;3.65;;;2.25;;
41219;SDS011;26951;47.338;9.196;2023-08-31T12:39:21;2.53;;;2.30;;
41219;SDS011;26951;47.338;9.196;2023-08-31T12:42:06;2.38;;;2.00;;
41219;SDS011;26951;47.338;9.196;2023-08-31T12:44:50;4.28;;;2.38;;
41219;SDS011;26951;47.338;9.196;2023-08-31T12:47:34;2.95;;;2.08;;
41219;SDS011;26951;47.338;9.196;2023-08-31T12:50:18;2.57;;;1.90;;
41219;SDS011;26951;47.338;9.196;2023-08-31T12:53:03;3.70;;;1.80;;
41219;SDS011;26951;47.338;9.196;2023-08-31T12:55:48;2.70;;;2.00;;
41219;SDS011;26951;47.338;9.196;2023-08-31T12:58:33;3.42;;;2.17;;
41219;SDS011;26951;47.338;9.196;2023-08-31T13:01:18;2.80;;;2.20;;
41219;SDS011;26951;47.338;9.196;2023-08-31T13:04:03;3.35;;;2.20;;
41219;SDS011;26951;47.338;9.196;2023-08-31T13:06:48;2.30;;;2.10;;
41219;SDS011;26951;47.338;9.196;2023-08-31T13:09:32;4.68;;;2.45;;
41219;SDS011;26951;47.338;9.196;2023-08-31T13:12:17;2.92;;;2.03;;
41219;SDS011;26951;47.338;9.196;2023-08-31T13:15:02;3.05;;;2.00;;
41219;SDS011;26951;47.338;9.196;2023-08-31T13:17:47;2.08;;;1.80;;
41219;SDS011;26951;47.338;9.196;2023-08-31T13:20:31;2.70;;;2.30;;
41219;SDS011;26951;47.338;9.196;2023-08-31T13:23:15;3.28;;;2.25;;
41219;SDS011;26951;47.338;9.196;2023-08-31T13:25:59;2.72;;;1.98;;
41219;SDS011;26951;47.338;9.196;2023-08-31T13:28:43;3.22;;;2.22;;
41219;SDS011;26951;47.338;9.196;2023-08-31T13:31:27;2.35;;;2.13;;
41219;SDS011;26951;47.338;9.196;2023-08-31T13:34:12;3.47;;;2.30;;
41219;SDS011;26951;47.338;9.196;2023-08-31T13:36:59;4.03;;;2.35;;
41219;SDS011;26951;47.338;9.196;2023-08-31T13:39:43;3.58;;;2.33;;
41219;SDS011;26951;47.338;9.196;2023-08-31T13:42:31;5.95;;;2.33;;
41219;SDS011;26951;47.338;9.196;2023-08-31T13:45:18;5.32;;;2.90;;
41219;SDS011;26951;47.338;9.196;2023-08-31T13:48:02;3.85;;;2.20;;
41219;SDS011;26951;47.338;9.196;2023-08-31T13:50:47;3.03;;;2.20;;
41219;SDS011;26951;47.338;9.196;2023-08-31T13:53:31;2.78;;;2.13;;
41219;SDS011;26951;47.338;9.196;2023-08-31T13:56:15;4.20;;;2.50;;
41219;SDS011;26951;47.338;9.196;2023-08-31T13:58:59;5.43;;;3.30;;
41219;SDS011;26951;47.338;9.196;2023-08-31T14:01:44;3.83;;;3.05;;
41219;SDS011;26951;47.338;9.196;2023-08-31T14:04:28;3.97;;;2.30;;
41219;SDS011;26951;47.338;9.196;2023-08-31T14:07:13;3.20;;;2.50;;
41219;SDS011;26951;47.338;9.196;2023-08-31T14:09:57;3.42;;;2.47;;
41219;SDS011;26951;47.338;9.196;2023-08-31T14:12:41;4.43;;;2.60;;
41219;SDS011;26951;47.338;9.196;2023-08-31T14:15:26;3.50;;;2.70;;
41219;SDS011;26951;47.338;9.196;2023-08-31T14:18:10;5.30;;;2.43;;
41219;SDS011;26951;47.338;9.196;2023-08-31T14:20:54;3.20;;;2.67;;
41219;SDS011;26951;47.338;9.196;2023-08-31T14:23:39;3.58;;;2.72;;
41219;SDS011;26951;47.338;9.196;2023-08-31T14:26:23;3.88;;;2.67;;
41219;SDS011;26951;47.338;9.196;2023-08-31T14:29:08;4.10;;;2.80;;
41219;SDS011;26951;47.338;9.196;2023-08-31T14:31:52;2.95;;;2.38;;
41219;SDS011;26951;47.338;9.196;2023-08-31T14:34:38;3.72;;;2.63;;
41219;SDS011;26951;47.338;9.196;2023-08-31T14:37:22;3.15;;;2.40;;
41219;SDS011;26951;47.338;9.196;2023-08-31T14:40:06;4.03;;;2.38;;
41219;SDS011;26951;47.338;9.196;2023-08-31T14:42:51;3.58;;;2.35;;
41219;SDS011;26951;47.338;9.196;2023-08-31T14:45:36;3.85;;;2.70;;
41219;SDS011;26951;47.338;9.196;2023-08-31T14:48:22;4.45;;;2.75;;
41219;SDS011;26951;47.338;9.196;2023-08-31T14:51:06;3.15;;;2.45;;
41219;SDS011;26951;47.338;9.196;2023-08-31T14:53:50;6.88;;;2.83;;
41219;SDS011;26951;47.338;9.196;2023-08-31T14:56:35;3.85;;;2.80;;
41219;SDS011;26951;47.338;9.196;2023-08-31T14:59:19;4.10;;;2.60;;
41219;SDS011;26951;47.338;9.196;2023-08-31T15:02:03;3.25;;;2.50;;
41219;SDS011;26951;47.338;9.196;2023-08-31T15:04:48;3.03;;;2.47;;
41219;SDS011;26951;47.338;9.196;2023-08-31T15:07:33;3.15;;;2.40;;
41219;SDS011;26951;47.338;9.196;2023-08-31T15:10:17;3.50;;;3.15;;
41219;SDS011;26951;47.338;9.196;2023-08-31T15:13:01;3.38;;;2.40;;
41219;SDS011;26951;47.338;9.196;2023-08-31T15:15:46;3.10;;;2.63;;
41219;SDS011;26951;47.338;9.196;2023-08-31T15:18:31;5.63;;;3.27;;
41219;SDS011;26951;47.338;9.196;2023-08-31T15:21:15;3.17;;;2.80;;
41219;SDS011;26951;47.338;9.196;2023-08-31T15:24:00;3.85;;;2.80;;
41219;SDS011;26951;47.338;9.196;2023-08-31T15:26:44;4.13;;;2.78;;
41219;SDS011;26951;47.338;9.196;2023-08-31T15:29:29;3.10;;;2.75;;
41219;SDS011;26951;47.338;9.196;2023-08-31T15:32:14;3.40;;;2.50;;
41219;SDS011;26951;47.338;9.196;2023-08-31T15:34:59;3.67;;;2.67;;
41219;SDS011;26951;47.338;9.196;2023-08-31T15:37:43;3.67;;;2.55;;
41219;SDS011;26951;47.338;9.196;2023-08-31T15:40:31;4.88;;;3.28;;
41219;SDS011;26951;47.338;9.196;2023-08-31T15:43:15;3.47;;;2.45;;
41219;SDS011;26951;47.338;9.196;2023-08-31T15:46:00;5.47;;;2.83;;
41219;SDS011;26951;47.338;9.196;2023-08-31T15:48:45;3.42;;;2.72;;
41219;SDS011;26951;47.338;9.196;2023-08-31T15:51:32;3.45;;;2.55;;
41219;SDS011;26951;47.338;9.196;2023-08-31T15:54:17;2.58;;;2.30;;
41219;SDS011;26951;47.338;9.196;2023-08-31T15:57:01;2.78;;;2.30;;
41219;SDS011;26951;47.338;9.196;2023-08-31T15:59:46;3.38;;;2.63;;
41219;SDS011;26951;47.338;9.196;2023-08-31T16:02:33;3.53;;;2.65;;
41219;SDS011;26951;47.338;9.196;2023-08-31T16:05:18;3.58;;;2.63;;
41219;SDS011;26951;47.338;9.196;2023-08-31T16:08:02;4.85;;;3.25;;
41219;SDS011;26951;47.338;9.196;2023-08-31T16:10:47;5.03;;;3.13;;
41219;SDS011;26951;47.338;9.196;2023-08-31T16:13:31;3.83;;;2.78;;
41219;SDS011;26951;47.338;9.196;2023-08-31T16:16:15;3.20;;;2.50;;
41219;SDS011;26951;47.338;9.196;2023-08-31T16:19:00;4.32;;;3.13;;
41219;SDS011;26951;47.338;9.196;2023-08-31T16:21:45;3.88;;;2.80;;
41219;SDS011;26951;47.338;9.196;2023-08-31T16:24:29;3.20;;;2.80;;
41219;SDS011;26951;47.338;9.196;2023-08-31T16:27:13;4.43;;;2.70;;
41219;SDS011;26951;47.338;9.196;2023-08-31T16:29:58;3.88;;;2.88;;
41219;SDS011;26951;47.338;9.196;2023-08-31T16:32:42;3.30;;;2.80;;
41219;SDS011;26951;47.338;9.196;2023-08-31T16:35:27;3.03;;;2.60;;
41219;SDS011;26951;47.338;9.196;2023-08-31T16:38:12;3.97;;;2.80;;
41219;SDS011;26951;47.338;9.196;2023-08-31T16:40:57;5.20;;;2.70;;
41219;SDS011;26951;47.338;9.196;2023-08-31T16:43:41;3.58;;;2.50;;
41219;SDS011;26951;47.338;9.196;2023-08-31T16:46:25;3.60;;;2.63;;
41219;SDS011;26951;47.338;9.196;2023-08-31T16:49:09;4.63;;;2.55;;
41219;SDS011;26951;47.338;9.196;2023-08-31T16:51:54;3.65;;;2.75;;
41219;SDS011;26951;47.338;9.196;2023-08-31T16:54:38;3.58;;;2.75;;
41219;SDS011;26951;47.338;9.196;2023-08-31T16:57:22;3.67;;;2.47;;
41219;SDS011;26951;47.338;9.196;2023-08-31T17:00:06;3.15;;;2.47;;